sensor_id;sensor_type;location;lat;lon;timestamp;pressure;altitude;pressure_sealevel;temperature;humidity
14041;BME280;7095;51.388;6.196;2022-10-22T00:01:31;105119.03;;;-145.32;100.00
14041;BME280;7095;51.388;6.196;2022-10-22T00:03:59;106410.88;;;-145.32;100.00
14041;BME280;7095;51.388;6.196;2022-10-22T00:06:28;106669.31;;;-145.32;100.00
14041;BME280;7095;51.388;6.196;2022-10-22T00:08:57;106669.31;;;-145.32;100.00
14041;BME280;7095;51.388;6.196;2022-10-22T00:11:26;106669.31;;;-145.32;100.00
14041;BME280;7095;51.388;6.196;2022-10-22T00:13:54;105894.09;;;-145.32;100.00
14041;BME280;7095;51.388;6.196;2022-10-22T00:16:23;105635.72;;;-145.32;100.00
14041;BME280;7095;51.388;6.196;2022-10-22T00:18:52;105119.03;;;-145.32;100.00
14041;BME280;7095;51.388;6.196;2022-10-22T00:21:21;105377.34;;;-145.32;100.00
14041;BME280;7095;51.388;6.196;2022-10-22T00:23:50;105894.09;;;-145.32;100.00
14041;BME280;7095;51.388;6.196;2022-10-22T00:26:18;105119.03;;;-145.32;100.00
14041;BME280;7095;51.388;6.196;2022-10-22T00:28:47;104860.72;;;-145.32;100.00
14041;BME280;7095;51.388;6.196;2022-10-22T00:31:16;104602.44;;;-145.32;100.00
14041;BME280;7095;51.388;6.196;2022-10-22T00:33:46;105377.34;;;-145.32;100.00
14041;BME280;7095;51.388;6.196;2022-10-22T00:36:16;105635.72;;;-145.32;100.00
14041;BME280;7095;51.388;6.196;2022-10-22T00:38:45;106669.31;;;-145.32;100.00
14041;BME280;7095;51.388;6.196;2022-10-22T00:41:13;106927.75;;;-145.32;100.00
14041;BME280;7095;51.388;6.196;2022-10-22T00:43:56;106152.47;;;-145.32;100.00
14041;BME280;7095;51.388;6.196;2022-10-22T00:46:25;106152.47;;;-145.32;100.00
14041;BME280;7095;51.388;6.196;2022-10-22T00:48:55;105894.09;;;-145.32;100.00
14041;BME280;7095;51.388;6.196;2022-10-22T00:51:29;105377.34;;;-145.32;100.00
14041;BME280;7095;51.388;6.196;2022-10-22T00:54:00;105119.03;;;-145.32;100.00
14041;BME280;7095;51.388;6.196;2022-10-22T00:56:30;105119.03;;;-145.32;100.00
14041;BME280;7095;51.388;6.196;2022-10-22T00:59:01;105377.34;;;-145.32;100.00
14041;BME280;7095;51.388;6.196;2022-10-22T01:01:31;106152.47;;;-145.32;100.00
14041;BME280;7095;51.388;6.196;2022-10-22T01:03:59;105894.09;;;-145.32;100.00
14041;BME280;7095;51.388;6.196;2022-10-22T01:06:31;105894.09;;;-145.32;100.00
14041;BME280;7095;51.388;6.196;2022-10-22T01:09:11;105377.34;;;-145.32;100.00
14041;BME280;7095;51.388;6.196;2022-10-22T01:11:51;104860.72;;;-145.32;100.00
14041;BME280;7095;51.388;6.196;2022-10-22T01:14:26;105119.03;;;-145.32;100.00
14041;BME280;7095;51.388;6.196;2022-10-22T01:17:07;105377.34;;;-145.32;100.00
14041;BME280;7095;51.388;6.196;2022-10-22T01:19:53;105635.72;;;-145.32;100.00
14041;BME280;7095;51.388;6.196;2022-10-22T01:22:29;105377.34;;;-145.32;100.00
14041;BME280;7095;51.388;6.196;2022-10-22T01:25:05;105377.34;;;-145.32;100.00
14041;BME280;7095;51.388;6.196;2022-10-22T01:27:45;106410.88;;;-145.32;100.00
14041;BME280;7095;51.388;6.196;2022-10-22T01:30:22;106152.47;;;-145.32;100.00
14041;BME280;7095;51.388;6.196;2022-10-22T01:32:55;105894.09;;;-145.32;100.00
14041;BME280;7095;51.388;6.196;2022-10-22T01:35:27;105377.34;;;-145.32;100.00
14041;BME280;7095;51.388;6.196;2022-10-22T01:37:59;105119.03;;;-145.32;100.00
14041;BME280;7095;51.388;6.196;2022-10-22T01:40:29;106152.47;;;-145.32;100.00
14041;BME280;7095;51.388;6.196;2022-10-22T01:43:02;105894.09;;;-145.32;100.00
14041;BME280;7095;51.388;6.196;2022-10-22T01:45:35;105894.09;;;-145.32;100.00
14041;BME280;7095;51.388;6.196;2022-10-22T01:48:15;106152.47;;;-145.32;100.00
14041;BME280;7095;51.388;6.196;2022-10-22T01:51:12;106152.47;;;-145.32;100.00
14041;BME280;7095;51.388;6.196;2022-10-22T01:53:49;106152.47;;;-145.32;100.00
14041;BME280;7095;51.388;6.196;2022-10-22T01:56:35;106152.47;;;-145.32;100.00
14041;BME280;7095;51.388;6.196;2022-10-22T01:59:14;105635.72;;;-145.32;100.00
14041;BME280;7095;51.388;6.196;2022-10-22T02:01:55;105119.03;;;-145.32;100.00
14041;BME280;7095;51.388;6.196;2022-10-22T02:04:30;105377.34;;;-145.32;100.00
14041;BME280;7095;51.388;6.196;2022-10-22T02:07:04;105635.72;;;-145.32;100.00
14041;BME280;7095;51.388;6.196;2022-10-22T02:09:34;106152.47;;;-145.32;100.00
14041;BME280;7095;51.388;6.196;2022-10-22T02:12:06;106152.47;;;-145.32;100.00
14041;BME280;7095;51.388;6.196;2022-10-22T02:14:38;106410.88;;;-145.32;100.00
14041;BME280;7095;51.388;6.196;2022-10-22T02:17:13;105635.72;;;-145.32;100.00
14041;BME280;7095;51.388;6.196;2022-10-22T02:19:47;105377.34;;;-145.32;100.00
14041;BME280;7095;51.388;6.196;2022-10-22T02:22:18;105377.34;;;-145.32;100.00
14041;BME280;7095;51.388;6.196;2022-10-22T02:24:48;105635.72;;;-145.32;100.00
14041;BME280;7095;51.388;6.196;2022-10-22T02:27:20;105894.09;;;-145.32;100.00
14041;BME280;7095;51.388;6.196;2022-10-22T02:29:57;106669.31;;;-145.32;100.00
14041;BME280;7095;51.388;6.196;2022-10-22T02:32:34;106927.75;;;-145.32;100.00
14041;BME280;7095;51.388;6.196;2022-10-22T02:35:08;106927.75;;;-145.32;100.00
14041;BME280;7095;51.388;6.196;2022-10-22T02:37:39;105894.09;;;-145.32;100.00
14041;BME280;7095;51.388;6.196;2022-10-22T02:40:08;105635.72;;;-145.32;100.00
14041;BME280;7095;51.388;6.196;2022-10-22T02:42:38;105635.72;;;-145.32;100.00
14041;BME280;7095;51.388;6.196;2022-10-22T02:45:09;105377.34;;;-145.32;100.00
14041;BME280;7095;51.388;6.196;2022-10-22T02:47:39;105377.34;;;-145.32;100.00
14041;BME280;7095;51.388;6.196;2022-10-22T02:50:08;105119.03;;;-145.32;100.00
14041;BME280;7095;51.388;6.196;2022-10-22T02:52:37;105635.72;;;-145.32;100.00
14041;BME280;7095;51.388;6.196;2022-10-22T02:55:07;106410.88;;;-145.32;100.00
14041;BME280;7095;51.388;6.196;2022-10-22T02:57:35;106152.47;;;-145.32;100.00
14041;BME280;7095;51.388;6.196;2022-10-22T03:00:13;105635.72;;;-145.32;100.00
14041;BME280;7095;51.388;6.196;2022-10-22T03:02:43;105894.09;;;-145.32;100.00
14041;BME280;7095;51.388;6.196;2022-10-22T03:05:12;105119.03;;;-145.32;100.00
14041;BME280;7095;51.388;6.196;2022-10-22T03:07:40;105635.72;;;-145.32;100.00
14041;BME280;7095;51.388;6.196;2022-10-22T03:10:09;105635.72;;;-145.32;100.00
14041;BME280;7095;51.388;6.196;2022-10-22T03:12:37;105894.09;;;-145.32;100.00
14041;BME280;7095;51.388;6.196;2022-10-22T03:15:06;105377.34;;;-145.32;100.00
14041;BME280;7095;51.388;6.196;2022-10-22T03:17:35;104860.72;;;-145.32;100.00
14041;BME280;7095;51.388;6.196;2022-10-22T03:20:07;104860.72;;;-145.32;100.00
14041;BME280;7095;51.388;6.196;2022-10-22T03:22:38;105635.72;;;-145.32;100.00
14041;BME280;7095;51.388;6.196;2022-10-22T03:25:12;105377.34;;;-145.32;100.00
14041;BME280;7095;51.388;6.196;2022-10-22T03:27:42;107186.22;;;-145.32;100.00
14041;BME280;7095;51.388;6.196;2022-10-22T03:30:12;107186.22;;;-145.32;100.00
14041;BME280;7095;51.388;6.196;2022-10-22T03:32:40;105894.09;;;-145.32;100.00
14041;BME280;7095;51.388;6.196;2022-10-22T03:35:10;105377.34;;;-145.32;100.00
14041;BME280;7095;51.388;6.196;2022-10-22T03:37:39;105894.09;;;-145.32;100.00
14041;BME280;7095;51.388;6.196;2022-10-22T03:40:09;106669.31;;;-145.32;100.00
14041;BME280;7095;51.388;6.196;2022-10-22T03:42:40;106669.31;;;-145.32;100.00
14041;BME280;7095;51.388;6.196;2022-10-22T03:45:10;105635.72;;;-145.32;100.00
14041;BME280;7095;51.388;6.196;2022-10-22T03:47:38;105635.72;;;-145.32;100.00
14041;BME280;7095;51.388;6.196;2022-10-22T03:50:10;105635.72;;;-145.32;100.00
14041;BME280;7095;51.388;6.196;2022-10-22T03:52:39;105635.72;;;-145.32;100.00
14041;BME280;7095;51.388;6.196;2022-10-22T03:55:08;105377.34;;;-145.32;100.00
14041;BME280;7095;51.388;6.196;2022-10-22T03:57:37;105635.72;;;-145.32;100.00
14041;BME280;7095;51.388;6.196;2022-10-22T04:00:07;105119.03;;;-145.32;100.00
14041;BME280;7095;51.388;6.196;2022-10-22T04:02:37;104344.16;;;-145.32;100.00
14041;BME280;7095;51.388;6.196;2022-10-22T04:05:06;104344.16;;;-145.32;100.00
14041;BME280;7095;51.388;6.196;2022-10-22T04:07:36;104860.72;;;-145.32;100.00
14041;BME280;7095;51.388;6.196;2022-10-22T04:10:05;105635.72;;;-145.32;100.00
14041;BME280;7095;51.388;6.196;2022-10-22T04:12:34;104602.44;;;-145.32;100.00
14041;BME280;7095;51.388;6.196;2022-10-22T04:15:06;105377.34;;;-145.32;100.00
14041;BME280;7095;51.388;6.196;2022-10-22T04:17:36;105377.34;;;-145.32;100.00
14041;BME280;7095;51.388;6.196;2022-10-22T04:20:06;105894.09;;;-145.32;100.00
14041;BME280;7095;51.388;6.196;2022-10-22T04:22:36;106152.47;;;-145.32;100.00
14041;BME280;7095;51.388;6.196;2022-10-22T04:25:05;105894.09;;;-145.32;100.00
14041;BME280;7095;51.388;6.196;2022-10-22T04:27:34;105119.03;;;-145.32;100.00
14041;BME280;7095;51.388;6.196;2022-10-22T04:30:03;104602.44;;;-145.32;100.00
14041;BME280;7095;51.388;6.196;2022-10-22T04:32:32;105119.03;;;-145.32;100.00
14041;BME280;7095;51.388;6.196;2022-10-22T04:35:01;104860.72;;;-145.32;100.00
14041;BME280;7095;51.388;6.196;2022-10-22T04:37:29;105635.72;;;-145.32;100.00
14041;BME280;7095;51.388;6.196;2022-10-22T04:40:00;105635.72;;;-145.32;100.00
14041;BME280;7095;51.388;6.196;2022-10-22T04:42:28;105894.09;;;-145.32;100.00
14041;BME280;7095;51.388;6.196;2022-10-22T04:44:57;105635.72;;;-145.32;100.00
14041;BME280;7095;51.388;6.196;2022-10-22T04:47:25;106152.47;;;-145.32;100.00
14041;BME280;7095;51.388;6.196;2022-10-22T04:49:54;106669.31;;;-145.32;100.00
14041;BME280;7095;51.388;6.196;2022-10-22T04:52:22;107444.69;;;-145.32;100.00
14041;BME280;7095;51.388;6.196;2022-10-22T04:54:50;107703.22;;;-145.32;100.00
14041;BME280;7095;51.388;6.196;2022-10-22T04:57:20;107186.22;;;-145.32;100.00
14041;BME280;7095;51.388;6.196;2022-10-22T04:59:49;106927.75;;;-145.32;100.00
14041;BME280;7095;51.388;6.196;2022-10-22T05:02:18;106410.88;;;-145.32;100.00
14041;BME280;7095;51.388;6.196;2022-10-22T05:04:47;106410.88;;;-145.32;100.00
14041;BME280;7095;51.388;6.196;2022-10-22T05:07:15;105635.72;;;-145.32;100.00
14041;BME280;7095;51.388;6.196;2022-10-22T05:09:44;105894.09;;;-145.32;100.00
14041;BME280;7095;51.388;6.196;2022-10-22T05:12:12;105894.09;;;-145.32;100.00
14041;BME280;7095;51.388;6.196;2022-10-22T05:14:43;105119.03;;;-145.32;100.00
14041;BME280;7095;51.388;6.196;2022-10-22T05:17:11;104602.44;;;-145.32;100.00
14041;BME280;7095;51.388;6.196;2022-10-22T05:19:40;104860.72;;;-145.32;100.00
14041;BME280;7095;51.388;6.196;2022-10-22T05:22:09;105377.34;;;-145.32;100.00
14041;BME280;7095;51.388;6.196;2022-10-22T05:24:38;104860.72;;;-145.32;100.00
14041;BME280;7095;51.388;6.196;2022-10-22T05:27:07;104860.72;;;-145.32;100.00
14041;BME280;7095;51.388;6.196;2022-10-22T05:29:35;104860.72;;;-145.32;100.00
14041;BME280;7095;51.388;6.196;2022-10-22T05:32:05;104085.91;;;-145.32;100.00
14041;BME280;7095;51.388;6.196;2022-10-22T05:34:34;104344.16;;;-145.32;100.00
14041;BME280;7095;51.388;6.196;2022-10-22T05:37:03;104602.44;;;-145.32;100.00
14041;BME280;7095;51.388;6.196;2022-10-22T05:39:31;105119.03;;;-145.32;100.00
14041;BME280;7095;51.388;6.196;2022-10-22T05:42:03;104085.91;;;-145.32;100.00
14041;BME280;7095;51.388;6.196;2022-10-22T05:44:32;103827.66;;;-145.32;100.00
14041;BME280;7095;51.388;6.196;2022-10-22T05:47:00;104602.44;;;-145.32;100.00
14041;BME280;7095;51.388;6.196;2022-10-22T05:49:30;104344.16;;;-145.32;100.00
14041;BME280;7095;51.388;6.196;2022-10-22T05:51:59;104344.16;;;-145.32;100.00
14041;BME280;7095;51.388;6.196;2022-10-22T05:54:27;104602.44;;;-145.32;100.00
14041;BME280;7095;51.388;6.196;2022-10-22T05:56:56;105635.72;;;-145.32;100.00
14041;BME280;7095;51.388;6.196;2022-10-22T05:59:24;105119.03;;;-145.32;100.00
14041;BME280;7095;51.388;6.196;2022-10-22T06:01:53;105119.03;;;-145.32;100.00
14041;BME280;7095;51.388;6.196;2022-10-22T06:04:21;105119.03;;;-145.32;100.00
14041;BME280;7095;51.388;6.196;2022-10-22T06:06:52;105635.72;;;-145.32;100.00
14041;BME280;7095;51.388;6.196;2022-10-22T06:09:22;106152.47;;;-145.32;100.00
14041;BME280;7095;51.388;6.196;2022-10-22T06:11:52;106669.31;;;-145.32;100.00
14041;BME280;7095;51.388;6.196;2022-10-22T06:14:23;107703.22;;;-145.32;100.00
14041;BME280;7095;51.388;6.196;2022-10-22T06:16:52;109513.28;;;-145.32;100.00
14041;BME280;7095;51.388;6.196;2022-10-22T06:19:21;110548.00;;;-145.32;100.00
14041;BME280;7095;51.388;6.196;2022-10-22T06:21:53;110806.75;;;-145.32;100.00
14041;BME280;7095;51.388;6.196;2022-10-22T06:24:21;109771.94;;;-145.32;100.00
14041;BME280;7095;51.388;6.196;2022-10-22T06:26:50;109771.94;;;-145.32;100.00
14041;BME280;7095;51.388;6.196;2022-10-22T06:29:19;110030.59;;;-145.32;100.00
14041;BME280;7095;51.388;6.196;2022-10-22T06:31:48;109771.94;;;-145.32;100.00
14041;BME280;7095;51.388;6.196;2022-10-22T06:34:16;110030.59;;;-145.32;100.00
14041;BME280;7095;51.388;6.196;2022-10-22T06:36:46;110030.59;;;-145.32;100.00
14041;BME280;7095;51.388;6.196;2022-10-22T06:39:16;110030.59;;;-145.32;100.00
14041;BME280;7095;51.388;6.196;2022-10-22T06:41:45;109771.94;;;-145.32;100.00
14041;BME280;7095;51.388;6.196;2022-10-22T06:44:19;110030.59;;;-145.32;100.00
14041;BME280;7095;51.388;6.196;2022-10-22T06:46:49;110289.28;;;-145.32;100.00
14041;BME280;7095;51.388;6.196;2022-10-22T06:49:19;110030.59;;;-145.32;100.00
14041;BME280;7095;51.388;6.196;2022-10-22T06:51:49;110289.28;;;-145.32;100.00
14041;BME280;7095;51.388;6.196;2022-10-22T06:54:19;110030.59;;;-145.32;100.00
14041;BME280;7095;51.388;6.196;2022-10-22T06:56:48;110030.59;;;-145.32;100.00
14041;BME280;7095;51.388;6.196;2022-10-22T06:59:17;110289.28;;;-145.32;100.00
14041;BME280;7095;51.388;6.196;2022-10-22T07:01:46;110030.59;;;-145.32;100.00
14041;BME280;7095;51.388;6.196;2022-10-22T07:04:14;109254.63;;;-145.32;100.00
14041;BME280;7095;51.388;6.196;2022-10-22T07:06:43;108737.41;;;-145.32;100.00
14041;BME280;7095;51.388;6.196;2022-10-22T07:09:11;108220.28;;;-145.32;100.00
14041;BME280;7095;51.388;6.196;2022-10-22T07:11:43;108478.84;;;-145.32;100.00
14041;BME280;7095;51.388;6.196;2022-10-22T07:14:13;108220.28;;;-145.32;100.00
14041;BME280;7095;51.388;6.196;2022-10-22T07:16:42;108478.84;;;-145.32;100.00
14041;BME280;7095;51.388;6.196;2022-10-22T07:19:12;107703.22;;;-145.32;100.00
14041;BME280;7095;51.388;6.196;2022-10-22T07:21:41;107186.22;;;-145.32;100.00
14041;BME280;7095;51.388;6.196;2022-10-22T07:24:09;106927.75;;;-145.32;100.00
14041;BME280;7095;51.388;6.196;2022-10-22T07:26:38;106669.31;;;-145.32;100.00
14041;BME280;7095;51.388;6.196;2022-10-22T07:29:08;105894.09;;;-145.32;100.00
14041;BME280;7095;51.388;6.196;2022-10-22T07:31:37;106152.47;;;-145.32;100.00
14041;BME280;7095;51.388;6.196;2022-10-22T07:34:05;105635.72;;;-145.32;100.00
14041;BME280;7095;51.388;6.196;2022-10-22T07:36:34;105894.09;;;-145.32;100.00
14041;BME280;7095;51.388;6.196;2022-10-22T07:39:03;105119.03;;;-145.32;100.00
14041;BME280;7095;51.388;6.196;2022-10-22T07:41:32;104860.72;;;-145.32;100.00
14041;BME280;7095;51.388;6.196;2022-10-22T07:44:00;105119.03;;;-145.32;100.00
14041;BME280;7095;51.388;6.196;2022-10-22T07:46:30;104085.91;;;-145.32;100.00
14041;BME280;7095;51.388;6.196;2022-10-22T07:49:01;103827.66;;;-145.32;100.00
14041;BME280;7095;51.388;6.196;2022-10-22T07:51:29;104085.91;;;-145.32;100.00
14041;BME280;7095;51.388;6.196;2022-10-22T07:53:58;104085.91;;;-145.32;100.00
14041;BME280;7095;51.388;6.196;2022-10-22T07:56:27;102794.91;;;-145.32;100.00
14041;BME280;7095;51.388;6.196;2022-10-22T07:58:55;100730.31;;;-145.32;100.00
14041;BME280;7095;51.388;6.196;2022-10-22T08:01:24;102020.53;;;-145.32;100.00
14041;BME280;7095;51.388;6.196;2022-10-22T08:03:54;102278.66;;;-145.32;100.00
14041;BME280;7095;51.388;6.196;2022-10-22T08:06:23;101504.38;;;-145.32;100.00
14041;BME280;7095;51.388;6.196;2022-10-22T08:08:51;102278.66;;;-145.32;100.00
14041;BME280;7095;51.388;6.196;2022-10-22T08:11:20;102278.66;;;-145.32;100.00
14041;BME280;7095;51.388;6.196;2022-10-22T08:13:49;98924.81;;;-145.32;100.00
14041;BME280;7095;51.388;6.196;2022-10-22T08:16:17;100472.31;;;-145.32;100.00
14041;BME280;7095;51.388;6.196;2022-10-22T08:18:46;98409.13;;;-145.32;100.00
14041;BME280;7095;51.388;6.196;2022-10-22T08:21:16;96089.47;;;-145.32;100.00
14041;BME280;7095;51.388;6.196;2022-10-22T08:23:44;92741.59;;;-145.32;100.00
14041;BME280;7095;51.388;6.196;2022-10-22T08:26:13;94286.38;;;-145.32;100.00
14041;BME280;7095;51.388;6.196;2022-10-22T08:28:42;90425.72;;;-145.32;100.00
14041;BME280;7095;51.388;6.196;2022-10-22T08:31:11;92226.81;;;-145.32;100.00
14041;BME280;7095;51.388;6.196;2022-10-22T08:33:39;89139.81;;;-145.32;100.00
14041;BME280;7095;51.388;6.196;2022-10-22T08:36:09;92741.59;;;-145.32;100.00
14041;BME280;7095;51.388;6.196;2022-10-22T08:38:39;89911.31;;;-145.32;100.00
14041;BME280;7095;51.388;6.196;2022-10-22T08:41:10;90168.50;;;-145.32;100.00
14041;BME280;7095;51.388;6.196;2022-10-22T08:44:01;84514.44;;;-145.32;100.00
14041;BME280;7095;51.388;6.196;2022-10-22T08:46:55;86569.41;;;-145.32;100.00
14041;BME280;7095;51.388;6.196;2022-10-22T08:49:29;86826.34;;;-145.32;100.00
14041;BME280;7095;51.388;6.196;2022-10-22T08:52:09;84257.66;;;-145.32;100.00
14041;BME280;7095;51.388;6.196;2022-10-22T08:54:48;81947.50;;;-145.32;100.00
14041;BME280;7095;51.388;6.196;2022-10-22T08:57:26;82460.72;;;-145.32;100.00
14041;BME280;7095;51.388;6.196;2022-10-22T09:00:04;77075.53;;;-145.32;100.00
14041;BME280;7095;51.388;6.196;2022-10-22T09:02:36;76563.09;;;-145.32;100.00
14041;BME280;7095;51.388;6.196;2022-10-22T09:05:27;77075.53;;;-145.32;100.00
14041;BME280;7095;51.388;6.196;2022-10-22T09:07:59;73234.09;;;-145.32;100.00
14041;BME280;7095;51.388;6.196;2022-10-22T09:10:34;68438.41;;;-145.32;100.00
14041;BME280;7095;51.388;6.196;2022-10-22T09:13:04;64822.09;;;-145.32;100.00
14041;BME280;7095;51.388;6.196;2022-10-22T09:15:32;64748.28;;;-145.32;100.00
14041;BME280;7095;51.388;6.196;2022-10-22T09:18:18;62802.06;;;-145.32;100.00
14041;BME280;7095;51.388;6.196;2022-10-22T09:20:53;62070.50;;;-145.32;100.00
14041;BME280;7095;51.388;6.196;2022-10-22T09:23:30;61879.19;;;-145.32;100.00
14041;BME280;7095;51.388;6.196;2022-10-22T09:26:05;59848.94;;;-145.32;100.00
14041;BME280;7095;51.388;6.196;2022-10-22T09:28:39;57991.13;;;-145.32;100.00
14041;BME280;7095;51.388;6.196;2022-10-22T09:31:10;57342.22;;;-145.32;100.00
14041;BME280;7095;51.388;6.196;2022-10-22T09:33:40;57598.97;;;-145.32;100.00
14041;BME280;7095;51.388;6.196;2022-10-22T09:36:12;57481.53;;;-145.32;100.00
14041;BME280;7095;51.388;6.196;2022-10-22T09:38:45;57075.53;;;-145.32;100.00
14041;BME280;7095;51.388;6.196;2022-10-22T09:41:17;56424.81;;;-145.32;100.00
14041;BME280;7095;51.388;6.196;2022-10-22T09:43:46;56199.97;;;-145.32;100.00
14041;BME280;7095;51.388;6.196;2022-10-22T09:46:17;55849.81;;;-145.32;100.00
14041;BME280;7095;51.388;6.196;2022-10-22T09:48:47;55696.63;;;-145.32;100.00
14041;BME280;7095;51.388;6.196;2022-10-22T09:51:19;55690.66;;;-145.32;100.00
14041;BME280;7095;51.388;6.196;2022-10-22T09:53:55;55404.19;;;-145.32;100.00
14041;BME280;7095;51.388;6.196;2022-10-22T09:56:28;55298.78;;;-145.32;100.00
14041;BME280;7095;51.388;6.196;2022-10-22T09:59:01;55145.63;;;-145.32;100.00
14041;BME280;7095;51.388;6.196;2022-10-22T10:01:32;55026.28;;;-145.32;100.00
14041;BME280;7095;51.388;6.196;2022-10-22T10:04:02;54877.09;;;-145.32;100.00
14041;BME280;7095;51.388;6.196;2022-10-22T10:06:38;54809.50;;;-145.32;100.00
14041;BME280;7095;51.388;6.196;2022-10-22T10:09:14;54656.34;;;-145.32;100.00
14041;BME280;7095;51.388;6.196;2022-10-22T10:11:51;54712.03;;;-145.32;100.00
14041;BME280;7095;51.388;6.196;2022-10-22T10:14:28;54727.94;;;-145.32;100.00
14041;BME280;7095;51.388;6.196;2022-10-22T10:17:05;54680.22;;;-145.32;100.00
14041;BME280;7095;51.388;6.196;2022-10-22T10:19:46;54600.66;;;-145.32;100.00
14041;BME280;7095;51.388;6.196;2022-10-22T10:22:30;54584.75;;;-145.32;100.00
14041;BME280;7095;51.388;6.196;2022-10-22T10:25:30;54564.88;;;-145.32;100.00
14041;BME280;7095;51.388;6.196;2022-10-22T10:28:11;54550.94;;;-145.32;100.00
14041;BME280;7095;51.388;6.196;2022-10-22T10:30:53;54505.22;;;-145.32;100.00
14041;BME280;7095;51.388;6.196;2022-10-22T10:33:32;54544.97;;;-145.32;100.00
14041;BME280;7095;51.388;6.196;2022-10-22T10:36:11;54417.72;;;-145.32;100.00
14041;BME280;7095;51.388;6.196;2022-10-22T10:38:51;54415.72;;;-145.32;100.00
14041;BME280;7095;51.388;6.196;2022-10-22T10:41:32;54397.81;;;-145.32;100.00
14041;BME280;7095;51.388;6.196;2022-10-22T10:44:40;54298.41;;;-145.32;100.00
14041;BME280;7095;51.388;6.196;2022-10-22T10:47:23;54328.22;;;-145.32;100.00
14041;BME280;7095;51.388;6.196;2022-10-22T10:50:03;54278.50;;;-145.32;100.00
14041;BME280;7095;51.388;6.196;2022-10-22T10:52:42;54264.59;;;-145.32;100.00
14041;BME280;7095;51.388;6.196;2022-10-22T10:55:18;54246.69;;;-145.32;100.00
14041;BME280;7095;51.388;6.196;2022-10-22T10:57:55;54210.91;;;-145.32;100.00
14041;BME280;7095;51.388;6.196;2022-10-22T11:00:31;54135.34;;;-145.32;100.00
14041;BME280;7095;51.388;6.196;2022-10-22T11:03:33;54183.06;;;-145.32;100.00
14041;BME280;7095;51.388;6.196;2022-10-22T11:06:06;54179.09;;;-145.32;100.00
14041;BME280;7095;51.388;6.196;2022-10-22T11:08:39;54155.22;;;-145.32;100.00
14041;BME280;7095;51.388;6.196;2022-10-22T11:11:15;54145.28;;;-145.32;100.00
14041;BME280;7095;51.388;6.196;2022-10-22T11:13:49;54175.13;;;-145.32;100.00
14041;BME280;7095;51.388;6.196;2022-10-22T11:16:24;54191.03;;;-145.32;100.00
14041;BME280;7095;51.388;6.196;2022-10-22T11:18:59;54159.19;;;-145.32;100.00
14041;BME280;7095;51.388;6.196;2022-10-22T11:21:34;54095.56;;;-145.32;100.00
14041;BME280;7095;51.388;6.196;2022-10-22T11:24:11;54139.31;;;-145.32;100.00
14041;BME280;7095;51.388;6.196;2022-10-22T11:26:46;54107.50;;;-145.32;100.00
14041;BME280;7095;51.388;6.196;2022-10-22T11:29:20;54051.81;;;-145.32;100.00
14041;BME280;7095;51.388;6.196;2022-10-22T11:31:57;54029.97;;;-145.32;100.00
14041;BME280;7095;51.388;6.196;2022-10-22T11:34:30;54035.91;;;-145.32;100.00
14041;BME280;7095;51.388;6.196;2022-10-22T11:37:02;54043.88;;;-145.32;100.00
14041;BME280;7095;51.388;6.196;2022-10-22T11:39:37;54041.88;;;-145.32;100.00
14041;BME280;7095;51.388;6.196;2022-10-22T11:42:10;54018.03;;;-145.32;100.00
14041;BME280;7095;51.388;6.196;2022-10-22T11:44:48;53942.47;;;-145.32;100.00
14041;BME280;7095;51.388;6.196;2022-10-22T11:47:28;53922.59;;;-145.32;100.00
14041;BME280;7095;51.388;6.196;2022-10-22T11:50:16;53924.56;;;-145.32;100.00
14041;BME280;7095;51.388;6.196;2022-10-22T11:52:53;53936.50;;;-145.32;100.00
14041;BME280;7095;51.388;6.196;2022-10-22T11:55:32;53904.69;;;-145.32;100.00
14041;BME280;7095;51.388;6.196;2022-10-22T11:58:05;53912.66;;;-145.32;100.00
14041;BME280;7095;51.388;6.196;2022-10-22T12:00:50;53942.47;;;-145.32;100.00
14041;BME280;7095;51.388;6.196;2022-10-22T12:03:24;53902.69;;;-145.32;100.00
14041;BME280;7095;51.388;6.196;2022-10-22T12:06:17;53876.84;;;-145.32;100.00
14041;BME280;7095;51.388;6.196;2022-10-22T12:08:53;53878.84;;;-145.32;100.00
14041;BME280;7095;51.388;6.196;2022-10-22T12:11:25;53829.13;;;-145.32;100.00
14041;BME280;7095;51.388;6.196;2022-10-22T12:16:43;53817.22;;;-145.32;100.00
14041;BME280;7095;51.388;6.196;2022-10-22T12:19:31;53839.06;;;-145.32;100.00
14041;BME280;7095;51.388;6.196;2022-10-22T12:22:12;53817.22;;;-145.32;100.00
14041;BME280;7095;51.388;6.196;2022-10-22T12:24:43;53825.16;;;-145.32;100.00
14041;BME280;7095;51.388;6.196;2022-10-22T12:27:18;53809.25;;;-145.32;100.00
14041;BME280;7095;51.388;6.196;2022-10-22T12:29:53;53779.44;;;-145.32;100.00
14041;BME280;7095;51.388;6.196;2022-10-22T12:32:33;53777.44;;;-145.32;100.00
14041;BME280;7095;51.388;6.196;2022-10-22T12:35:06;53771.47;;;-145.32;100.00
14041;BME280;7095;51.388;6.196;2022-10-22T12:37:36;53789.38;;;-145.32;100.00
14041;BME280;7095;51.388;6.196;2022-10-22T12:40:16;53741.66;;;-145.32;100.00
14041;BME280;7095;51.388;6.196;2022-10-22T12:42:52;53753.59;;;-145.32;100.00
14041;BME280;7095;51.388;6.196;2022-10-22T12:45:22;53757.56;;;-145.32;100.00
14041;BME280;7095;51.388;6.196;2022-10-22T12:47:55;53789.38;;;-145.32;100.00
14041;BME280;7095;51.388;6.196;2022-10-22T12:50:34;53779.44;;;-145.32;100.00
14041;BME280;7095;51.388;6.196;2022-10-22T12:53:05;53783.41;;;-145.32;100.00
14041;BME280;7095;51.388;6.196;2022-10-22T12:55:33;53733.69;;;-145.32;100.00
14041;BME280;7095;51.388;6.196;2022-10-22T12:58:04;53785.41;;;-145.32;100.00
14041;BME280;7095;51.388;6.196;2022-10-22T13:00:34;53765.50;;;-145.32;100.00
14041;BME280;7095;51.388;6.196;2022-10-22T13:03:05;53759.56;;;-145.32;100.00